createdAt,value
2017-08-01T00:00:53.491Z,88.35
2017-08-01T00:01:53.465Z,88.25
2017-08-01T00:02:53.452Z,88.45
2017-08-01T00:03:53.447Z,87.67
2017-08-01T00:04:53.122Z,88.02
2017-08-01T00:05:53.422Z,88.79
2017-08-01T00:06:53.401Z,88.21
2017-08-01T00:07:53.401Z,88.79
2017-08-01T00:08:53.073Z,88.5
2017-08-01T00:09:53.370Z,88.98
2017-08-01T00:10:53.352Z,88.5
2017-08-01T00:11:53.341Z,88.79
2017-08-01T00:12:53.022Z,88.5
2017-08-01T00:13:53.013Z,89.07
2017-08-01T00:14:52.997Z,88.69
2017-08-01T00:15:53.293Z,88.54
2017-08-01T00:16:52.973Z,88.83
2017-08-01T00:17:53.261Z,88.73
2017-08-01T00:18:53.261Z,88.15
2017-08-01T00:19:53.242Z,88.21
2017-08-01T00:20:52.919Z,88.79
2017-08-01T00:21:53.212Z,88.69
2017-08-01T00:22:53.201Z,88.59
2017-08-01T00:23:52.880Z,88.98
2017-08-01T00:24:52.867Z,88.79
2017-08-01T00:25:53.160Z,88.59
2017-08-01T00:26:53.140Z,88.79
2017-08-01T00:27:52.824Z,88.4
2017-08-01T00:28:53.121Z,88.69
2017-08-01T00:29:53.101Z,88.98
2017-08-01T00:30:53.093Z,88.5
2017-08-01T00:31:53.082Z,88.59
2017-08-01T00:32:53.063Z,89.27
2017-08-01T00:33:53.049Z,88.69
2017-08-01T00:34:53.044Z,88.59
2017-08-01T00:35:53.022Z,88.69
2017-08-01T00:36:53.047Z,88.31
2017-08-01T00:37:53.002Z,88.59
2017-08-01T00:38:53.002Z,87.63
2017-08-01T00:39:52.972Z,87.73
2017-08-01T00:40:52.982Z,87.63
2017-08-01T00:41:52.953Z,87.53
2017-08-01T00:42:53.037Z,87.82
2017-08-01T00:43:52.922Z,87.73
2017-08-01T00:44:52.934Z,87.92
2017-08-01T00:45:52.591Z,88.31
2017-08-01T00:46:52.932Z,87.67
2017-08-01T00:47:52.861Z,88.11
2017-08-01T00:48:52.862Z,87.87
2017-08-01T00:49:52.841Z,87.87
2017-08-01T00:50:52.846Z,88.64
2017-08-01T00:51:52.813Z,88.21
2017-08-01T00:52:52.502Z,88.15
2017-08-01T00:53:52.790Z,88.11
2017-08-01T00:54:52.781Z,88.79
2017-08-01T00:55:52.771Z,88.98
2017-08-01T00:56:52.752Z,88.69
2017-08-01T00:57:52.739Z,88.69
2017-08-01T00:58:52.727Z,88.79
2017-08-01T00:59:52.710Z,88.69
2017-08-01T01:00:52.392Z,88.79
2017-08-01T01:01:52.413Z,88.31
2017-08-01T01:02:52.672Z,88.59
2017-08-01T01:03:52.352Z,88.5
2017-08-01T01:04:52.653Z,88.59
2017-08-01T01:05:52.631Z,88.4
2017-08-01T01:06:52.312Z,88.59
2017-08-01T01:07:52.302Z,88.89
2017-08-01T01:08:52.593Z,88.69
2017-08-01T01:09:52.591Z,88.4
2017-08-01T01:10:52.262Z,88.89
2017-08-01T01:11:52.252Z,88.21
2017-08-01T01:12:52.232Z,88.11
2017-08-01T01:13:52.534Z,88.4
2017-08-01T01:14:52.522Z,88.02
2017-08-01T01:15:52.302Z,88.4
2017-08-01T01:16:52.183Z,87.92
2017-08-01T01:17:52.177Z,88.69
2017-08-01T01:18:52.475Z,88.11
2017-08-01T01:19:52.442Z,87.92
2017-08-01T01:20:52.133Z,88.02
2017-08-01T01:21:52.431Z,88.02
2017-08-01T01:22:52.414Z,88.79
2017-08-01T01:23:52.408Z,88.89
2017-08-01T01:24:52.382Z,88.31
2017-08-01T01:25:52.372Z,88.59
2017-08-01T01:26:52.362Z,88.79
2017-08-01T01:27:52.352Z,89.37
2017-08-01T01:28:52.332Z,89.07
2017-08-01T01:29:52.112Z,89.17
2017-08-01T01:30:52.310Z,89.65
2017-08-01T01:31:52.292Z,89.9
2017-08-01T01:32:51.975Z,90
2017-08-01T01:33:52.266Z,90.38
2017-08-01T01:34:52.253Z,89.47
2017-08-01T01:35:51.981Z,90
2017-08-01T01:36:51.922Z,90.38
2017-08-01T01:37:52.227Z,89.75
2017-08-01T01:38:51.893Z,89.51
2017-08-01T01:39:51.902Z,90.14
2017-08-01T01:40:51.861Z,89.37
2017-08-01T01:41:52.170Z,89.65
2017-08-01T01:42:52.166Z,89.42
2017-08-01T01:43:51.899Z,89.47
2017-08-01T01:44:52.124Z,89.65
2017-08-01T01:45:52.112Z,89.27
2017-08-01T01:46:52.170Z,89.07
2017-08-01T01:47:52.080Z,89.17
2017-08-01T01:48:51.762Z,88.59
2017-08-01T01:49:51.782Z,88.98
2017-08-01T01:50:52.052Z,88.59
2017-08-01T01:51:52.020Z,88.5
2017-08-01T01:52:51.708Z,88.59
2017-08-01T01:53:52.012Z,88.5
2017-08-01T01:54:52.002Z,88.59
2017-08-01T01:55:51.694Z,89.17
2017-08-01T01:56:51.982Z,89.37
2017-08-01T01:57:51.652Z,90.14
2017-08-01T01:58:51.631Z,89.56
2017-08-01T01:59:51.613Z,89.56
2017-08-01T02:00:51.600Z,90.14
2017-08-01T02:01:51.901Z,89.56
2017-08-01T02:02:51.887Z,90.05
2017-08-01T02:03:51.564Z,90.05
2017-08-01T02:04:51.857Z,90.23
2017-08-01T02:05:51.842Z,90.05
2017-08-01T02:06:51.831Z,90.53
2017-08-01T02:07:51.821Z,90.43
2017-08-01T02:08:51.812Z,90.23
2017-08-01T02:09:51.793Z,90.43
2017-08-01T02:10:51.482Z,89.95
2017-08-01T02:11:51.461Z,89.85
2017-08-01T02:12:51.751Z,90.23
2017-08-01T02:13:51.732Z,90.23
2017-08-01T02:14:51.721Z,90.53
2017-08-01T02:15:51.400Z,90.53
2017-08-01T02:16:51.391Z,90.62
2017-08-01T02:17:51.372Z,90.43
2017-08-01T02:18:51.662Z,90.77
2017-08-01T02:19:51.661Z,90.48
2017-08-01T02:20:51.643Z,90.14
2017-08-01T02:21:51.652Z,90.48
2017-08-01T02:22:51.632Z,90.29
2017-08-01T02:23:51.292Z,90.23
2017-08-01T02:24:51.594Z,89.9
2017-08-01T02:25:51.577Z,90.19
2017-08-01T02:26:51.563Z,90.77
2017-08-01T02:27:51.249Z,90.29
2017-08-01T02:28:51.551Z,90.87
2017-08-01T02:29:51.541Z,90.38
2017-08-01T02:30:51.523Z,90.96
2017-08-01T02:31:51.505Z,91.16
2017-08-01T02:32:51.481Z,91.64
2017-08-01T02:33:51.473Z,91.54
2017-08-01T02:34:51.463Z,91.44
2017-08-01T02:35:51.446Z,92.02
2017-08-01T02:36:51.443Z,91.93
2017-08-01T02:37:51.415Z,91.44
2017-08-01T02:38:51.403Z,91.93
2017-08-01T02:39:51.085Z,91.83
2017-08-01T02:40:51.084Z,91.83
2017-08-01T02:41:51.362Z,91.83
2017-08-01T02:42:51.361Z,92.02
2017-08-01T02:43:51.353Z,91.54
2017-08-01T02:44:51.015Z,92.02
2017-08-01T02:45:51.003Z,92.6
2017-08-01T02:46:51.295Z,92.02
2017-08-01T02:47:51.283Z,92.17
2017-08-01T02:48:50.958Z,92.56
2017-08-01T02:49:51.262Z,92.7
2017-08-01T02:50:51.260Z,92.56
2017-08-01T02:51:51.232Z,92.27
2017-08-01T02:52:51.224Z,92.46
2017-08-01T02:53:51.202Z,92.46
2017-08-01T02:54:51.195Z,92.94
2017-08-01T02:55:51.163Z,93.13
2017-08-01T02:56:51.163Z,92.56
2017-08-01T02:57:51.154Z,93.71
2017-08-01T02:58:51.127Z,93.81
2017-08-01T02:59:51.120Z,93.91
2017-08-01T03:00:50.795Z,93.81
2017-08-01T03:01:51.093Z,93.81
2017-08-01T03:02:51.075Z,94.2
2017-08-01T03:03:51.065Z,94.39
2017-08-01T03:04:51.047Z,94.2
2017-08-01T03:05:50.732Z,95.16
2017-08-01T03:06:51.034Z,94.87
2017-08-01T03:07:50.714Z,94.87
2017-08-01T03:08:50.782Z,94.87
2017-08-01T03:09:50.974Z,94.1
2017-08-01T03:10:51.046Z,93.71
2017-08-01T03:11:50.963Z,93.43
2017-08-01T03:12:51.025Z,93.62
2017-08-01T03:13:50.922Z,94
2017-08-01T03:14:51.002Z,93.81
2017-08-01T03:15:50.902Z,94.48
2017-08-01T03:16:50.912Z,94.44
2017-08-01T03:17:50.573Z,94.15
2017-08-01T03:18:50.654Z,94.06
2017-08-01T03:19:50.538Z,94.06
2017-08-01T03:20:50.554Z,93.96
2017-08-01T03:21:50.820Z,93.91
2017-08-01T03:22:50.934Z,93.76
2017-08-01T03:23:50.794Z,93.86
2017-08-01T03:24:50.572Z,93.71
2017-08-01T03:25:50.452Z,94.15
2017-08-01T03:26:50.761Z,93.91
2017-08-01T03:27:50.740Z,94.06
2017-08-01T03:28:50.722Z,94.2
2017-08-01T03:29:50.709Z,94.1
2017-08-01T03:30:50.740Z,93.91
2017-08-01T03:31:50.744Z,94
2017-08-01T03:32:50.414Z,94.29
2017-08-01T03:33:50.660Z,94.44
2017-08-01T03:34:50.334Z,95.02
2017-08-01T03:35:50.643Z,95.11
2017-08-01T03:36:50.607Z,94.82
2017-08-01T03:37:50.305Z,94.92
2017-08-01T03:38:50.586Z,94.54
2017-08-01T03:39:50.643Z,95.11
2017-08-01T03:40:50.562Z,95.4
2017-08-01T03:41:50.553Z,95.4
2017-08-01T03:42:50.537Z,95.4
2017-08-01T03:43:50.512Z,95.11
2017-08-01T03:44:50.493Z,95.31
2017-08-01T03:45:50.489Z,95.5
2017-08-01T03:46:50.475Z,95.4
2017-08-01T03:47:50.483Z,95.89
2017-08-01T03:48:50.445Z,95.98
2017-08-01T03:49:50.428Z,96.85
2017-08-01T03:50:50.416Z,96.66
2017-08-01T03:51:50.425Z,96.66
2017-08-01T03:52:50.392Z,96.56
2017-08-01T03:53:50.389Z,96.66
2017-08-01T03:54:50.374Z,96.94
2017-08-01T03:55:50.353Z,97.04
2017-08-01T03:56:50.334Z,96.66
2017-08-01T03:57:50.318Z,97.24
2017-08-01T03:58:50.314Z,97.62
2017-08-01T03:59:49.982Z,97.62
2017-08-01T04:00:50.282Z,97.24
2017-08-01T04:01:50.263Z,97.24
2017-08-01T04:02:50.253Z,97.81
2017-08-01T04:03:50.244Z,97.81
2017-08-01T04:04:49.912Z,98
2017-08-01T04:05:50.211Z,97.91
2017-08-01T04:06:49.891Z,97.91
2017-08-01T04:07:49.933Z,98.1
2017-08-01T04:08:50.164Z,98
2017-08-01T04:09:50.152Z,98.1
2017-08-01T04:10:49.833Z,98.29
2017-08-01T04:11:50.122Z,98.2
2017-08-01T04:12:49.801Z,98
2017-08-01T04:13:50.102Z,98.1
2017-08-01T04:14:50.082Z,97.81
2017-08-01T04:15:49.761Z,98.1
2017-08-01T04:16:49.752Z,98
2017-08-01T04:17:49.733Z,97.91
2017-08-01T04:18:50.037Z,98.1
2017-08-01T04:19:50.010Z,97.72
2017-08-01T04:20:50.002Z,97.72
2017-08-01T04:21:49.982Z,97.62
2017-08-01T04:22:49.967Z,97.62
2017-08-01T04:23:49.654Z,97.33
2017-08-01T04:24:49.942Z,97.33
2017-08-01T04:25:49.921Z,96.94
2017-08-01T04:26:49.912Z,97.24
2017-08-01T04:27:49.912Z,97.14
2017-08-01T04:28:49.581Z,97.04
2017-08-01T04:29:49.872Z,97.33
2017-08-01T04:30:49.854Z,97.33
2017-08-01T04:31:49.850Z,96.94
2017-08-01T04:32:49.851Z,97.62
2017-08-01T04:33:49.512Z,97.42
2017-08-01T04:34:49.490Z,97.62
2017-08-01T04:35:49.800Z,97.42
2017-08-01T04:36:49.461Z,98.29
2017-08-01T04:37:49.761Z,97.72
2017-08-01T04:38:49.743Z,98.1
2017-08-01T04:39:49.733Z,97.42
2017-08-01T04:40:49.414Z,97.72
2017-08-01T04:41:49.702Z,97.91
2017-08-01T04:42:49.387Z,98.1
2017-08-01T04:43:49.372Z,97.96
2017-08-01T04:44:49.351Z,98.15
2017-08-01T04:45:49.653Z,97.67
2017-08-01T04:46:49.322Z,97.67
2017-08-01T04:47:49.626Z,97.57
2017-08-01T04:48:49.302Z,98.05
2017-08-01T04:49:49.292Z,97.19
2017-08-01T04:50:49.572Z,97.38
2017-08-01T04:51:49.572Z,97.67
2017-08-01T04:52:49.543Z,97.47
2017-08-01T04:53:49.538Z,97.47
2017-08-01T04:54:49.522Z,96.89
2017-08-01T04:55:49.205Z,97.96
2017-08-01T04:56:49.500Z,97.77
2017-08-01T04:57:49.481Z,97.86
2017-08-01T04:58:49.473Z,98.34
2017-08-01T04:59:49.458Z,98.05
2017-08-01T05:00:49.467Z,97.96
2017-08-01T05:01:49.442Z,97.96
2017-08-01T05:02:49.421Z,98.15
2017-08-01T05:03:49.103Z,98.05
2017-08-01T05:04:49.394Z,97.86
2017-08-01T05:05:49.073Z,97.77
2017-08-01T05:06:49.381Z,98.25
2017-08-01T05:07:49.041Z,98.05
2017-08-01T05:08:49.344Z,98.15
2017-08-01T05:09:49.012Z,98.25
2017-08-01T05:10:49.313Z,97.96
2017-08-01T05:11:49.288Z,97.77
2017-08-01T05:12:49.292Z,98.63
2017-08-01T05:13:49.271Z,98.92
2017-08-01T05:14:49.261Z,98.63
2017-08-01T05:15:49.268Z,98.63
2017-08-01T05:16:49.231Z,98.73
2017-08-01T05:17:48.913Z,99.02
2017-08-01T05:18:49.212Z,98.34
2017-08-01T05:19:49.201Z,98.73
2017-08-01T05:20:49.169Z,98.82
2017-08-01T05:21:49.163Z,98.54
2017-08-01T05:22:48.841Z,98.82
2017-08-01T05:23:49.139Z,98.15
2017-08-01T05:24:48.811Z,98.82
2017-08-01T05:25:49.941Z,97.67
2017-08-01T05:26:49.083Z,97.57
2017-08-01T05:27:49.079Z,98.25
2017-08-01T05:28:49.065Z,97.86
2017-08-01T05:29:49.045Z,98.15
2017-08-01T05:30:49.253Z,98.15
2017-08-01T05:31:49.023Z,97.47
2017-08-01T05:32:49.007Z,97.28
2017-08-01T05:33:48.694Z,97.14
2017-08-01T05:34:48.982Z,96.56
2017-08-01T05:35:48.655Z,96.27
2017-08-01T05:36:48.961Z,96.66
2017-08-01T05:37:48.631Z,96.66
2017-08-01T05:38:48.922Z,95.88
2017-08-01T05:39:48.923Z,96.32
2017-08-01T05:40:48.600Z,96.8
2017-08-01T05:41:48.881Z,97.09
2017-08-01T05:42:48.673Z,96.89
2017-08-01T05:43:48.881Z,97.09
2017-08-01T05:44:48.581Z,97.09
2017-08-01T05:45:48.840Z,96.99
2017-08-01T05:46:48.818Z,96.99
2017-08-01T05:47:48.819Z,97.19
2017-08-01T05:48:48.791Z,97.33
2017-08-01T05:49:48.491Z,97.47
2017-08-01T05:50:48.466Z,97.38
2017-08-01T05:51:48.760Z,97.14
2017-08-01T05:52:48.451Z,97.33
2017-08-01T05:53:48.421Z,97.62
2017-08-01T05:54:48.418Z,97.72
2017-08-01T05:55:48.711Z,97.24
2017-08-01T05:56:48.812Z,97.04
2017-08-01T05:57:48.372Z,96.66
2017-08-01T05:58:48.671Z,96.17
2017-08-01T05:59:48.665Z,96.46
2017-08-01T06:00:48.684Z,95.79
2017-08-01T06:01:48.622Z,95.59
2017-08-01T06:02:48.644Z,96.27
2017-08-01T06:03:48.652Z,96.17
2017-08-01T06:04:48.283Z,95.88
2017-08-01T06:05:48.263Z,96.56
2017-08-01T06:06:48.561Z,96.36
2017-08-01T06:07:48.542Z,96.08
2017-08-01T06:08:48.541Z,96.27
2017-08-01T06:09:48.219Z,96.36
2017-08-01T06:10:48.232Z,96.08
2017-08-01T06:11:48.502Z,95.79
2017-08-01T06:12:48.522Z,96.12
2017-08-01T06:13:48.472Z,96.46
2017-08-01T06:14:48.550Z,96.08
2017-08-01T06:15:48.441Z,96.27
2017-08-01T06:16:48.531Z,96.75
2017-08-01T06:17:48.420Z,96.36
2017-08-01T06:18:48.401Z,96.27
2017-08-01T06:19:48.392Z,95.59
2017-08-01T06:20:48.069Z,95.31
2017-08-01T06:21:48.053Z,95.4
2017-08-01T06:22:48.045Z,95.11
2017-08-01T06:23:48.382Z,95.06
2017-08-01T06:24:48.322Z,94.48
2017-08-01T06:25:48.313Z,94.96
2017-08-01T06:26:48.300Z,94.87
2017-08-01T06:27:48.292Z,94.29
2017-08-01T06:28:48.271Z,94.29
2017-08-01T06:29:48.273Z,94.48
2017-08-01T06:30:48.242Z,94.48
2017-08-01T06:31:47.933Z,93.04
2017-08-01T06:32:48.228Z,92.55
2017-08-01T06:33:48.214Z,93.32
2017-08-01T06:34:48.192Z,93.62
2017-08-01T06:35:48.182Z,93.52
2017-08-01T06:36:48.170Z,93.9
2017-08-01T06:37:48.154Z,92.79
2017-08-01T06:38:48.142Z,92.26
2017-08-01T06:39:48.135Z,92.21
2017-08-01T06:40:47.812Z,92.31
2017-08-01T06:41:48.135Z,92.84
2017-08-01T06:42:48.096Z,92.69
2017-08-01T06:43:48.080Z,91.92
2017-08-01T06:44:48.069Z,92.31
2017-08-01T06:45:48.295Z,92.6
2017-08-01T06:46:48.045Z,92.5
2017-08-01T06:47:48.034Z,92.21
2017-08-01T06:48:48.032Z,91.87
2017-08-01T06:49:48.002Z,91.49
2017-08-01T06:50:47.989Z,91.39
2017-08-01T06:51:47.984Z,91.87
2017-08-01T06:52:47.671Z,91.05
2017-08-01T06:53:47.967Z,89.79
2017-08-01T06:54:47.947Z,90.03
2017-08-01T06:55:47.944Z,90.42
2017-08-01T06:56:47.927Z,90.42
2017-08-01T06:57:47.917Z,90.42
2017-08-01T06:58:47.905Z,89.65
2017-08-01T06:59:47.892Z,89.59
2017-08-01T07:00:47.898Z,89.59
2017-08-01T07:01:47.874Z,88.53
2017-08-01T07:02:48.077Z,88.24
2017-08-01T07:03:47.844Z,88.24
2017-08-01T07:04:47.832Z,88.63
2017-08-01T07:05:47.813Z,87.81
2017-08-01T07:06:47.803Z,87.32
2017-08-01T07:07:47.490Z,87.9
2017-08-01T07:08:47.784Z,87.71
2017-08-01T07:09:47.461Z,86.16
2017-08-01T07:10:47.753Z,85.77
2017-08-01T07:11:47.439Z,86.35
2017-08-01T07:12:47.431Z,86.65
2017-08-01T07:13:47.723Z,86.06
2017-08-01T07:14:47.408Z,85.58
2017-08-01T07:15:47.392Z,85.58
2017-08-01T07:16:47.383Z,85.58
2017-08-01T07:17:47.673Z,86.16
2017-08-01T07:18:47.382Z,86.55
2017-08-01T07:19:47.643Z,87.37
2017-08-01T07:20:47.644Z,86.45
2017-08-01T07:21:47.634Z,86.55
2017-08-01T07:22:47.631Z,86.55
2017-08-01T07:23:47.613Z,85.77
2017-08-01T07:24:47.592Z,85.77
2017-08-01T07:25:47.595Z,86.3
2017-08-01T07:26:47.581Z,85.62
2017-08-01T07:27:47.572Z,86.3
2017-08-01T07:28:47.549Z,85.91
2017-08-01T07:29:47.543Z,85.62
2017-08-01T07:30:47.532Z,85.86
2017-08-01T07:31:47.211Z,86.2
2017-08-01T07:32:47.509Z,87.21
2017-08-01T07:33:47.502Z,86.92
2017-08-01T07:34:47.485Z,86.73
2017-08-01T07:35:47.475Z,86.82
2017-08-01T07:36:47.167Z,86.73
2017-08-01T07:37:47.461Z,86.34
2017-08-01T07:38:47.150Z,87.31
2017-08-01T07:39:47.121Z,87.12
2017-08-01T07:40:47.128Z,87.06
2017-08-01T07:41:47.413Z,88.03
2017-08-01T07:42:47.097Z,85.9
2017-08-01T07:43:47.391Z,85.71
2017-08-01T07:44:47.071Z,86.19
2017-08-01T07:45:47.369Z,86.77
2017-08-01T07:46:47.360Z,87.26
2017-08-01T07:47:47.354Z,86.68
2017-08-01T07:48:47.573Z,85.17
2017-08-01T07:49:47.330Z,85.9
2017-08-01T07:50:47.315Z,85.8
2017-08-01T07:51:47.310Z,86
2017-08-01T07:52:47.536Z,85.9
2017-08-01T07:53:47.289Z,85.9
2017-08-01T07:54:47.278Z,86.54
2017-08-01T07:55:47.280Z,86.92
2017-08-01T07:56:47.259Z,87.93
2017-08-01T07:57:47.250Z,87.45
2017-08-01T07:58:47.245Z,85.85
2017-08-01T07:59:47.220Z,84.34
2017-08-01T08:00:47.223Z,83.8
2017-08-01T08:01:47.210Z,84.24
2017-08-01T08:02:47.195Z,84.43
2017-08-01T08:03:47.190Z,83.8
2017-08-01T08:04:47.190Z,83.4
2017-08-01T08:05:47.167Z,83.22
2017-08-01T08:06:47.196Z,83.22
2017-08-01T08:07:47.151Z,83.5
2017-08-01T08:08:47.150Z,82.53
2017-08-01T08:09:46.841Z,82.92
2017-08-01T08:10:47.129Z,84.1
2017-08-01T08:11:46.809Z,84.58
2017-08-01T08:12:47.353Z,84.88
2017-08-01T08:13:47.081Z,84.78
2017-08-01T08:14:46.810Z,84.49
2017-08-01T08:15:47.282Z,84.74
2017-08-01T08:16:47.124Z,85.13
2017-08-01T08:17:47.047Z,85.51
2017-08-01T08:18:47.063Z,86.38
2017-08-01T08:19:46.721Z,86.29
2017-08-01T08:20:46.718Z,86.92
2017-08-01T08:21:47.043Z,87.99
2017-08-01T08:22:47.007Z,88.53
2017-08-01T08:23:46.690Z,88.23
2017-08-01T08:24:46.990Z,88.53
2017-08-01T08:25:46.972Z,88.81
2017-08-01T08:26:46.962Z,88.33
2017-08-01T08:27:47.040Z,88.91
2017-08-01T08:28:46.981Z,88.47
2017-08-01T08:29:46.611Z,87.7
2017-08-01T08:30:46.620Z,87.79
2017-08-01T08:31:46.922Z,87.99
2017-08-01T08:32:46.892Z,87.02
2017-08-01T08:33:46.918Z,87.6
2017-08-01T08:34:46.873Z,87.21
2017-08-01T08:35:46.862Z,86.92
2017-08-01T08:36:46.538Z,86.92
2017-08-01T08:37:46.840Z,87.7
2017-08-01T08:38:46.831Z,87.75
2017-08-01T08:39:46.513Z,88.33
2017-08-01T08:40:46.824Z,89.11
2017-08-01T08:41:46.491Z,88.85
2017-08-01T08:42:46.786Z,87.99
2017-08-01T08:43:46.769Z,87.26
2017-08-01T08:44:46.769Z,87.06
2017-08-01T08:45:46.750Z,86.96
2017-08-01T08:46:46.739Z,87.35
2017-08-01T08:47:46.735Z,87.6
2017-08-01T08:48:46.414Z,87.89
2017-08-01T08:49:46.710Z,87.26
2017-08-01T08:50:46.699Z,87.64
2017-08-01T08:51:46.690Z,87.06
2017-08-01T08:52:46.377Z,87.74
2017-08-01T08:53:46.664Z,87.93
2017-08-01T08:54:46.673Z,87.54
2017-08-01T08:55:46.348Z,87.06
2017-08-01T08:56:46.651Z,86.38
2017-08-01T08:57:46.319Z,86.77
2017-08-01T08:58:46.609Z,86.72
2017-08-01T08:59:46.332Z,86.43
2017-08-01T09:00:46.291Z,87.3
2017-08-01T09:01:46.600Z,86.91
2017-08-01T09:02:46.590Z,87.15
2017-08-01T09:03:46.609Z,87.34
2017-08-01T09:04:46.249Z,85.6
2017-08-01T09:05:46.551Z,85.79
2017-08-01T09:06:46.774Z,86.72
2017-08-01T09:07:46.539Z,86.72
2017-08-01T09:08:46.514Z,87.1
2017-08-01T09:09:46.500Z,86.62
2017-08-01T09:10:46.539Z,86.18
2017-08-01T09:11:46.509Z,85.89
2017-08-01T09:12:46.587Z,85.79
2017-08-01T09:13:46.160Z,85.79
2017-08-01T09:14:46.140Z,86.57
2017-08-01T09:15:46.439Z,85.89
2017-08-01T09:16:46.430Z,85.89
2017-08-01T09:17:46.419Z,85.6
2017-08-01T09:18:46.098Z,85.79
2017-08-01T09:19:46.100Z,86.86
2017-08-01T09:20:46.442Z,85.69
2017-08-01T09:21:46.381Z,85.89
2017-08-01T09:22:46.458Z,85.89
2017-08-01T09:23:46.050Z,86.37
2017-08-01T09:24:46.349Z,86.27
2017-08-01T09:25:46.049Z,86.18
2017-08-01T09:26:46.028Z,85.79
2017-08-01T09:27:46.312Z,85.79
2017-08-01T09:28:46.341Z,85.89
2017-08-01T09:29:45.992Z,86.47
2017-08-01T09:30:45.981Z,86.76
2017-08-01T09:31:45.970Z,86.52
2017-08-01T09:32:46.279Z,87.1
2017-08-01T09:33:46.266Z,87.4
2017-08-01T09:34:46.253Z,87.68
2017-08-01T09:35:46.244Z,87.78
2017-08-01T09:36:45.919Z,87.59
2017-08-01T09:37:46.236Z,88.32
2017-08-01T09:38:46.209Z,88.61
2017-08-01T09:39:45.890Z,89.19
2017-08-01T09:40:46.188Z,89.53
2017-08-01T09:41:46.181Z,90.31
2017-08-01T09:42:46.166Z,90.7
2017-08-01T09:43:46.165Z,90.8
2017-08-01T09:44:45.845Z,90.31
2017-08-01T09:45:45.835Z,90.41
2017-08-01T09:46:45.821Z,90.8
2017-08-01T09:47:46.111Z,90.84
2017-08-01T09:48:45.792Z,91.62
2017-08-01T09:49:46.091Z,91.72
2017-08-01T09:50:45.774Z,91.82
2017-08-01T09:51:45.769Z,91.72
2017-08-01T09:52:46.048Z,91.56
2017-08-01T09:53:45.750Z,91.38
2017-08-01T09:54:46.042Z,90.89
2017-08-01T09:55:46.030Z,91.91
2017-08-01T09:56:46.011Z,91.72
2017-08-01T09:57:45.692Z,91.96
2017-08-01T09:58:46.029Z,91.52
2017-08-01T09:59:45.981Z,92.1
2017-08-01T10:00:45.975Z,92.2
2017-08-01T10:01:45.973Z,91.62
2017-08-01T10:02:45.962Z,91.82
2017-08-01T10:03:45.947Z,92
2017-08-01T10:04:45.621Z,91.33
2017-08-01T10:05:45.917Z,91.14
2017-08-01T10:06:45.591Z,91.62
2017-08-01T10:07:45.880Z,92.1
2017-08-01T10:08:45.579Z,91.33
2017-08-01T10:09:45.872Z,91.72
2017-08-01T10:10:45.861Z,90.94
2017-08-01T10:11:45.847Z,90.46
2017-08-01T10:12:45.839Z,90.6
2017-08-01T10:13:45.821Z,90.8
2017-08-01T10:14:45.814Z,90.8
2017-08-01T10:15:45.802Z,90.7
2017-08-01T10:16:45.793Z,91.14
2017-08-01T10:17:45.776Z,91.24
2017-08-01T10:18:45.766Z,91.04
2017-08-01T10:19:45.769Z,90.56
2017-08-01T10:20:45.740Z,90.31
2017-08-01T10:21:45.758Z,90.12
2017-08-01T10:22:45.733Z,90.84
2017-08-01T10:23:45.403Z,91.24
2017-08-01T10:24:45.712Z,91.82
2017-08-01T10:25:45.686Z,91.48
2017-08-01T10:26:45.382Z,91.86
2017-08-01T10:27:45.667Z,91.77
2017-08-01T10:28:45.651Z,92.1
2017-08-01T10:29:45.652Z,91.42
2017-08-01T10:30:45.642Z,90.17
2017-08-01T10:31:45.314Z,89.53
2017-08-01T10:32:45.603Z,89.63
2017-08-01T10:33:45.604Z,89.34
2017-08-01T10:34:45.590Z,88.9
2017-08-01T10:35:45.571Z,88.13
2017-08-01T10:36:45.791Z,87.93
2017-08-01T10:37:45.569Z,88.03
2017-08-01T10:38:45.544Z,87.3
2017-08-01T10:39:45.533Z,87.68
2017-08-01T10:40:45.522Z,85.99
2017-08-01T10:41:45.517Z,84.86
2017-08-01T10:42:45.502Z,83.74
2017-08-01T10:43:45.489Z,83.02
2017-08-01T10:44:45.474Z,83.6
2017-08-01T10:45:45.172Z,83.06
2017-08-01T10:46:45.465Z,82.57
2017-08-01T10:47:45.454Z,81.88
2017-08-01T10:48:45.442Z,81.01
2017-08-01T10:49:45.422Z,79.3
2017-08-01T10:50:45.113Z,80.36
2017-08-01T10:51:45.431Z,79.63
2017-08-01T10:52:45.099Z,78.99
2017-08-01T10:53:45.116Z,77.37
2017-08-01T10:54:45.383Z,76.98
2017-08-01T10:55:45.072Z,77.43
2017-08-01T10:56:45.360Z,79.04
2017-08-01T10:57:45.052Z,78.91
2017-08-01T10:58:45.601Z,78.71
2017-08-01T10:59:45.369Z,79.49
2017-08-01T11:00:45.346Z,80.56
2017-08-01T11:01:45.386Z,79.88
2017-08-01T11:02:45.312Z,79.43
2017-08-01T11:03:45.463Z,79.53
2017-08-01T11:04:45.294Z,79.1
2017-08-01T11:05:45.343Z,79.14
2017-08-01T11:06:44.977Z,78.56
2017-08-01T11:07:45.312Z,78.66
2017-08-01T11:08:45.283Z,78.81
2017-08-01T11:09:45.261Z,79.39
2017-08-01T11:10:45.251Z,79.43
2017-08-01T11:11:45.249Z,79.14
2017-08-01T11:12:45.234Z,78.27
2017-08-01T11:13:45.222Z,79.06
2017-08-01T11:14:45.282Z,80.32
2017-08-01T11:15:45.203Z,80.96
2017-08-01T11:16:45.227Z,81.16
2017-08-01T11:17:45.182Z,81.12
2017-08-01T11:18:45.183Z,80.29
2017-08-01T11:19:44.872Z,80.52
2017-08-01T11:20:45.176Z,80.42
2017-08-01T11:21:45.212Z,79.55
2017-08-01T11:22:45.143Z,79.39
2017-08-01T11:23:45.149Z,78.66
2017-08-01T11:24:45.122Z,77.14
2017-08-01T11:25:44.800Z,76.17
2017-08-01T11:26:45.102Z,76.01
2017-08-01T11:27:45.102Z,75.81
2017-08-01T11:28:44.792Z,75.45
2017-08-01T11:29:45.092Z,76.22
2017-08-01T11:30:45.113Z,77.25
2017-08-01T11:31:45.083Z,78.77
2017-08-01T11:32:44.749Z,79.1
2017-08-01T11:33:45.062Z,78.71
2017-08-01T11:34:45.053Z,77.1
2017-08-01T11:35:44.721Z,76.17
2017-08-01T11:36:45.031Z,76.26
2017-08-01T11:37:44.701Z,75.97
2017-08-01T11:38:44.754Z,76.17
2017-08-01T11:39:45.000Z,75.78
2017-08-01T11:40:45.054Z,75.97
2017-08-01T11:41:45.002Z,75.62
2017-08-01T11:42:44.681Z,75.42
2017-08-01T11:43:45.022Z,75.23
2017-08-01T11:44:44.661Z,76.51
2017-08-01T11:45:44.949Z,77.35
2017-08-01T11:46:44.734Z,77.45
2017-08-01T11:47:44.939Z,77.25
2017-08-01T11:48:45.053Z,76.97
2017-08-01T11:49:44.941Z,76.97
2017-08-01T11:50:44.960Z,77.35
2017-08-01T11:51:44.590Z,77.64
2017-08-01T11:52:44.891Z,78.67
2017-08-01T11:53:44.991Z,78.87
2017-08-01T11:54:44.901Z,79.35
2017-08-01T11:55:44.895Z,79.16
2017-08-01T11:56:44.861Z,79.16
2017-08-01T11:57:44.546Z,79.84
2017-08-01T11:58:44.851Z,81.16
2017-08-01T11:59:44.525Z,81.51
2017-08-01T12:00:44.815Z,82.09
2017-08-01T12:01:44.887Z,81.9
2017-08-01T12:02:44.498Z,82.57
2017-08-01T12:03:44.803Z,82.28
2017-08-01T12:04:44.469Z,82.87
2017-08-01T12:05:44.774Z,82.57
2017-08-01T12:06:44.762Z,82.67
2017-08-01T12:07:44.773Z,82.87
2017-08-01T12:08:44.453Z,82.48
2017-08-01T12:09:44.753Z,82.81
2017-08-01T12:10:44.731Z,83
2017-08-01T12:11:44.418Z,82.71
2017-08-01T12:12:44.722Z,82.81
2017-08-01T12:13:44.701Z,82.42
2017-08-01T12:14:44.683Z,83.2
2017-08-01T12:15:44.680Z,82.9
2017-08-01T12:16:44.664Z,82.62
2017-08-01T12:17:44.655Z,81.74
2017-08-01T12:18:44.651Z,81.93
2017-08-01T12:19:44.332Z,83
2017-08-01T12:20:44.619Z,83.54
2017-08-01T12:21:44.621Z,83.84
2017-08-01T12:22:44.621Z,84.81
2017-08-01T12:23:44.292Z,84.81
2017-08-01T12:24:44.293Z,84.52
2017-08-01T12:25:44.580Z,84.66
2017-08-01T12:26:44.592Z,84.85
2017-08-01T12:27:44.252Z,84.36
2017-08-01T12:28:44.555Z,84.46
2017-08-01T12:29:44.549Z,84.36
2017-08-01T12:30:44.541Z,82.9
2017-08-01T12:31:44.522Z,83.49
2017-08-01T12:32:44.205Z,83.1
2017-08-01T12:33:44.512Z,83.39
2017-08-01T12:34:44.495Z,83.78
2017-08-01T12:35:44.492Z,83.88
2017-08-01T12:36:44.527Z,84.56
2017-08-01T12:37:44.160Z,84.27
2017-08-01T12:38:44.453Z,82.42
2017-08-01T12:39:44.144Z,81.93
2017-08-01T12:40:44.453Z,82.13
2017-08-01T12:41:44.148Z,82.67
2017-08-01T12:42:44.421Z,82.87
2017-08-01T12:43:44.420Z,82.67
2017-08-01T12:44:44.099Z,82.97
2017-08-01T12:45:44.080Z,83.54
2017-08-01T12:46:44.371Z,82.57
2017-08-01T12:47:44.373Z,82.92
2017-08-01T12:48:44.361Z,83.6
2017-08-01T12:49:44.352Z,83.8
2017-08-01T12:50:44.341Z,84.96
2017-08-01T12:51:44.018Z,84.28
2017-08-01T12:52:44.011Z,84.38
2017-08-01T12:53:44.305Z,84.57
2017-08-01T12:54:44.291Z,84.92
2017-08-01T12:55:44.287Z,84.63
2017-08-01T12:56:43.973Z,85.21